sensor_id;sensor_type;location;lat;lon;timestamp;temperature;humidity
10417;DHT22;62605;49.432;8.680;2023-08-20T00:01:05;23.40;99.90
10417;DHT22;62605;49.432;8.680;2023-08-20T00:03:34;23.40;99.90
10417;DHT22;62605;49.432;8.680;2023-08-20T00:06:01;23.40;99.90
10417;DHT22;62605;49.432;8.680;2023-08-20T00:08:29;23.40;99.90
10417;DHT22;62605;49.432;8.680;2023-08-20T00:10:58;23.40;1.00
10417;DHT22;62605;49.432;8.680;2023-08-20T00:13:25;23.30;1.00
10417;DHT22;62605;49.432;8.680;2023-08-20T00:15:54;23.30;1.00
10417;DHT22;62605;49.432;8.680;2023-08-20T00:18:21;23.20;65.10
10417;DHT22;62605;49.432;8.680;2023-08-20T00:20:49;23.20;41.90
10417;DHT22;62605;49.432;8.680;2023-08-20T00:23:17;23.20;99.90
10417;DHT22;62605;49.432;8.680;2023-08-20T00:25:47;23.20;99.90
10417;DHT22;62605;49.432;8.680;2023-08-20T00:28:15;23.20;99.90
10417;DHT22;62605;49.432;8.680;2023-08-20T00:30:43;23.20;12.60
10417;DHT22;62605;49.432;8.680;2023-08-20T00:33:10;23.10;22.30
10417;DHT22;62605;49.432;8.680;2023-08-20T00:35:38;23.00;9.30
10417;DHT22;62605;49.432;8.680;2023-08-20T00:38:05;23.00;39.20
10417;DHT22;62605;49.432;8.680;2023-08-20T00:40:32;22.90;52.90
10417;DHT22;62605;49.432;8.680;2023-08-20T00:43:00;22.90;60.90
10417;DHT22;62605;49.432;8.680;2023-08-20T00:45:29;22.90;89.30
10417;DHT22;62605;49.432;8.680;2023-08-20T00:47:56;22.80;99.90
10417;DHT22;62605;49.432;8.680;2023-08-20T00:50:24;22.80;99.90
10417;DHT22;62605;49.432;8.680;2023-08-20T00:52:51;22.80;99.90
10417;DHT22;62605;49.432;8.680;2023-08-20T00:55:19;22.80;99.90
10417;DHT22;62605;49.432;8.680;2023-08-20T00:57:46;22.80;99.90
10417;DHT22;62605;49.432;8.680;2023-08-20T01:00:13;22.70;99.90
10417;DHT22;62605;49.432;8.680;2023-08-20T01:02:42;22.70;99.90
10417;DHT22;62605;49.432;8.680;2023-08-20T01:05:11;22.70;99.90
10417;DHT22;62605;49.432;8.680;2023-08-20T01:07:48;22.70;99.90
10417;DHT22;62605;49.432;8.680;2023-08-20T01:10:27;22.70;99.90
10417;DHT22;62605;49.432;8.680;2023-08-20T01:12:57;22.70;99.90
10417;DHT22;62605;49.432;8.680;2023-08-20T01:15:25;22.60;99.90
10417;DHT22;62605;49.432;8.680;2023-08-20T01:17:54;22.60;99.90
10417;DHT22;62605;49.432;8.680;2023-08-20T01:20:23;22.60;99.90
10417;DHT22;62605;49.432;8.680;2023-08-20T01:23:16;22.60;99.90
10417;DHT22;62605;49.432;8.680;2023-08-20T01:25:59;22.60;1.00
10417;DHT22;62605;49.432;8.680;2023-08-20T01:28:32;22.60;1.00
10417;DHT22;62605;49.432;8.680;2023-08-20T01:31:00;22.50;99.90
10417;DHT22;62605;49.432;8.680;2023-08-20T01:33:28;22.50;99.90
10417;DHT22;62605;49.432;8.680;2023-08-20T01:35:56;22.50;99.90
10417;DHT22;62605;49.432;8.680;2023-08-20T01:38:23;22.50;99.90
10417;DHT22;62605;49.432;8.680;2023-08-20T01:40:51;22.50;99.90
10417;DHT22;62605;49.432;8.680;2023-08-20T01:43:18;22.40;99.90
10417;DHT22;62605;49.432;8.680;2023-08-20T01:45:47;22.40;99.90
10417;DHT22;62605;49.432;8.680;2023-08-20T01:48:14;22.40;99.90
10417;DHT22;62605;49.432;8.680;2023-08-20T01:50:41;22.40;99.90
10417;DHT22;62605;49.432;8.680;2023-08-20T01:53:09;22.40;99.90
10417;DHT22;62605;49.432;8.680;2023-08-20T01:55:36;22.30;99.90
10417;DHT22;62605;49.432;8.680;2023-08-20T01:58:04;22.40;99.90
10417;DHT22;62605;49.432;8.680;2023-08-20T02:00:31;22.40;99.90
10417;DHT22;62605;49.432;8.680;2023-08-20T02:03:01;22.30;99.90
10417;DHT22;62605;49.432;8.680;2023-08-20T02:05:29;22.30;99.90
10417;DHT22;62605;49.432;8.680;2023-08-20T02:07:56;22.30;99.90
10417;DHT22;62605;49.432;8.680;2023-08-20T02:10:23;22.40;99.90
10417;DHT22;62605;49.432;8.680;2023-08-20T02:12:51;22.30;99.90
10417;DHT22;62605;49.432;8.680;2023-08-20T02:15:18;22.20;99.90
10417;DHT22;62605;49.432;8.680;2023-08-20T02:17:45;22.20;99.90
10417;DHT22;62605;49.432;8.680;2023-08-20T02:20:14;22.20;99.90
10417;DHT22;62605;49.432;8.680;2023-08-20T02:22:42;22.20;99.90
10417;DHT22;62605;49.432;8.680;2023-08-20T02:25:09;22.10;99.90
10417;DHT22;62605;49.432;8.680;2023-08-20T02:27:36;22.00;99.90
10417;DHT22;62605;49.432;8.680;2023-08-20T02:30:04;21.90;99.90
10417;DHT22;62605;49.432;8.680;2023-08-20T02:32:32;21.80;99.90
10417;DHT22;62605;49.432;8.680;2023-08-20T02:34:59;21.70;99.90
10417;DHT22;62605;49.432;8.680;2023-08-20T02:37:30;21.70;99.90
10417;DHT22;62605;49.432;8.680;2023-08-20T02:39:57;21.70;99.90
10417;DHT22;62605;49.432;8.680;2023-08-20T02:42:25;21.70;99.90
10417;DHT22;62605;49.432;8.680;2023-08-20T02:44:52;21.70;99.90
10417;DHT22;62605;49.432;8.680;2023-08-20T02:47:18;21.70;99.90
10417;DHT22;62605;49.432;8.680;2023-08-20T02:49:46;21.70;99.90
10417;DHT22;62605;49.432;8.680;2023-08-20T02:52:13;21.70;1.00
10417;DHT22;62605;49.432;8.680;2023-08-20T02:54:41;21.70;1.00
10417;DHT22;62605;49.432;8.680;2023-08-20T02:57:09;21.60;1.00
10417;DHT22;62605;49.432;8.680;2023-08-20T02:59:36;21.60;1.00
10417;DHT22;62605;49.432;8.680;2023-08-20T03:02:03;21.60;1.00
10417;DHT22;62605;49.432;8.680;2023-08-20T03:04:30;21.50;1.00
10417;DHT22;62605;49.432;8.680;2023-08-20T03:06:57;21.50;1.00
10417;DHT22;62605;49.432;8.680;2023-08-20T03:09:24;21.40;1.00
10417;DHT22;62605;49.432;8.680;2023-08-20T03:11:53;21.40;1.00
10417;DHT22;62605;49.432;8.680;2023-08-20T03:14:20;21.40;1.00
10417;DHT22;62605;49.432;8.680;2023-08-20T03:16:47;21.40;1.00
10417;DHT22;62605;49.432;8.680;2023-08-20T03:19:15;21.40;1.00
10417;DHT22;62605;49.432;8.680;2023-08-20T03:21:42;21.40;1.00
10417;DHT22;62605;49.432;8.680;2023-08-20T03:24:09;21.40;1.00
10417;DHT22;62605;49.432;8.680;2023-08-20T03:26:36;21.40;1.00
10417;DHT22;62605;49.432;8.680;2023-08-20T03:29:04;21.40;1.00
10417;DHT22;62605;49.432;8.680;2023-08-20T03:31:31;21.40;1.00
10417;DHT22;62605;49.432;8.680;2023-08-20T03:33:58;21.50;1.00
10417;DHT22;62605;49.432;8.680;2023-08-20T03:36:25;21.40;1.00
10417;DHT22;62605;49.432;8.680;2023-08-20T03:38:52;21.50;1.00
10417;DHT22;62605;49.432;8.680;2023-08-20T03:41:19;21.50;1.00
10417;DHT22;62605;49.432;8.680;2023-08-20T03:43:46;21.50;1.00
10417;DHT22;62605;49.432;8.680;2023-08-20T03:46:15;21.50;1.00
10417;DHT22;62605;49.432;8.680;2023-08-20T03:48:42;21.50;1.00
10417;DHT22;62605;49.432;8.680;2023-08-20T03:51:09;21.50;1.00
10417;DHT22;62605;49.432;8.680;2023-08-20T03:53:36;21.40;1.00
10417;DHT22;62605;49.432;8.680;2023-08-20T03:56:03;21.40;1.00
10417;DHT22;62605;49.432;8.680;2023-08-20T03:58:30;21.40;1.00
10417;DHT22;62605;49.432;8.680;2023-08-20T04:00:57;21.40;1.00
10417;DHT22;62605;49.432;8.680;2023-08-20T04:03:26;21.40;1.00
10417;DHT22;62605;49.432;8.680;2023-08-20T04:05:53;21.40;1.00
10417;DHT22;62605;49.432;8.680;2023-08-20T04:08:20;21.40;1.00
10417;DHT22;62605;49.432;8.680;2023-08-20T04:10:47;21.40;1.00
10417;DHT22;62605;49.432;8.680;2023-08-20T04:13:14;21.40;1.00
10417;DHT22;62605;49.432;8.680;2023-08-20T04:15:42;21.30;1.00
10417;DHT22;62605;49.432;8.680;2023-08-20T04:18:09;21.10;1.00
10417;DHT22;62605;49.432;8.680;2023-08-20T04:20:37;21.10;1.00
10417;DHT22;62605;49.432;8.680;2023-08-20T04:23:05;21.00;1.00
10417;DHT22;62605;49.432;8.680;2023-08-20T04:25:32;21.00;1.00
10417;DHT22;62605;49.432;8.680;2023-08-20T04:27:59;21.00;1.00
10417;DHT22;62605;49.432;8.680;2023-08-20T04:30:27;21.00;1.00
10417;DHT22;62605;49.432;8.680;2023-08-20T04:32:54;21.10;1.00
10417;DHT22;62605;49.432;8.680;2023-08-20T04:35:21;21.00;1.00
10417;DHT22;62605;49.432;8.680;2023-08-20T04:37:49;21.10;25.10
10417;DHT22;62605;49.432;8.680;2023-08-20T04:40:16;21.10;92.70
10417;DHT22;62605;49.432;8.680;2023-08-20T04:42:43;21.20;15.90
10417;DHT22;62605;49.432;8.680;2023-08-20T04:45:10;21.20;1.00
10417;DHT22;62605;49.432;8.680;2023-08-20T04:47:38;21.20;1.00
10417;DHT22;62605;49.432;8.680;2023-08-20T04:50:05;21.20;1.00
10417;DHT22;62605;49.432;8.680;2023-08-20T04:52:33;21.20;1.00
10417;DHT22;62605;49.432;8.680;2023-08-20T04:55:03;21.20;1.00
10417;DHT22;62605;49.432;8.680;2023-08-20T04:57:30;21.20;1.00
10417;DHT22;62605;49.432;8.680;2023-08-20T04:59:57;21.20;1.00
10417;DHT22;62605;49.432;8.680;2023-08-20T05:02:24;21.20;1.00
10417;DHT22;62605;49.432;8.680;2023-08-20T05:04:51;21.20;1.00
10417;DHT22;62605;49.432;8.680;2023-08-20T05:07:18;21.20;1.00
10417;DHT22;62605;49.432;8.680;2023-08-20T05:09:46;21.20;1.00
10417;DHT22;62605;49.432;8.680;2023-08-20T05:12:14;21.30;1.00
10417;DHT22;62605;49.432;8.680;2023-08-20T05:14:42;21.30;1.00
10417;DHT22;62605;49.432;8.680;2023-08-20T05:17:09;21.40;1.00
10417;DHT22;62605;49.432;8.680;2023-08-20T05:19:36;21.40;1.00
10417;DHT22;62605;49.432;8.680;2023-08-20T05:22:04;21.40;1.00
10417;DHT22;62605;49.432;8.680;2023-08-20T05:24:31;21.40;1.00
10417;DHT22;62605;49.432;8.680;2023-08-20T05:27:07;21.40;1.00
10417;DHT22;62605;49.432;8.680;2023-08-20T05:29:36;21.40;1.00
10417;DHT22;62605;49.432;8.680;2023-08-20T05:32:04;21.40;1.00
10417;DHT22;62605;49.432;8.680;2023-08-20T05:34:33;21.50;1.00
10417;DHT22;62605;49.432;8.680;2023-08-20T05:37:00;21.50;99.90
10417;DHT22;62605;49.432;8.680;2023-08-20T05:39:30;21.50;99.90
10417;DHT22;62605;49.432;8.680;2023-08-20T05:41:57;21.50;99.90
10417;DHT22;62605;49.432;8.680;2023-08-20T05:44:25;21.50;99.90
10417;DHT22;62605;49.432;8.680;2023-08-20T05:46:53;21.50;99.90
10417;DHT22;62605;49.432;8.680;2023-08-20T05:49:21;21.50;99.90
10417;DHT22;62605;49.432;8.680;2023-08-20T05:51:48;21.60;99.90
10417;DHT22;62605;49.432;8.680;2023-08-20T05:54:15;21.80;99.90
10417;DHT22;62605;49.432;8.680;2023-08-20T05:56:42;21.80;99.90
10417;DHT22;62605;49.432;8.680;2023-08-20T05:59:09;21.80;99.90
10417;DHT22;62605;49.432;8.680;2023-08-20T06:01:36;21.80;99.90
10417;DHT22;62605;49.432;8.680;2023-08-20T06:04:05;21.80;99.90
10417;DHT22;62605;49.432;8.680;2023-08-20T06:06:32;21.90;99.90
10417;DHT22;62605;49.432;8.680;2023-08-20T06:08:59;21.90;99.90
10417;DHT22;62605;49.432;8.680;2023-08-20T06:11:26;22.00;99.90
10417;DHT22;62605;49.432;8.680;2023-08-20T06:13:53;22.00;99.90
10417;DHT22;62605;49.432;8.680;2023-08-20T06:16:26;22.00;99.90
10417;DHT22;62605;49.432;8.680;2023-08-20T06:18:53;22.20;99.90
10417;DHT22;62605;49.432;8.680;2023-08-20T06:21:21;22.30;79.20
10417;DHT22;62605;49.432;8.680;2023-08-20T06:23:48;22.30;20.20
10417;DHT22;62605;49.432;8.680;2023-08-20T06:26:15;22.40;5.70
10417;DHT22;62605;49.432;8.680;2023-08-20T06:28:42;22.50;1.00
10417;DHT22;62605;49.432;8.680;2023-08-20T06:31:10;22.60;1.00
10417;DHT22;62605;49.432;8.680;2023-08-20T06:33:37;22.80;1.00
10417;DHT22;62605;49.432;8.680;2023-08-20T06:36:04;22.70;1.00
10417;DHT22;62605;49.432;8.680;2023-08-20T06:38:32;22.70;1.00
10417;DHT22;62605;49.432;8.680;2023-08-20T06:40:59;22.90;1.00
10417;DHT22;62605;49.432;8.680;2023-08-20T06:43:26;23.00;1.00
10417;DHT22;62605;49.432;8.680;2023-08-20T06:45:53;23.10;1.00
10417;DHT22;62605;49.432;8.680;2023-08-20T06:48:20;23.30;1.00
10417;DHT22;62605;49.432;8.680;2023-08-20T06:50:50;23.30;1.00
10417;DHT22;62605;49.432;8.680;2023-08-20T06:53:17;23.40;1.00
10417;DHT22;62605;49.432;8.680;2023-08-20T06:55:45;23.40;99.90
10417;DHT22;62605;49.432;8.680;2023-08-20T06:58:12;23.40;99.90
10417;DHT22;62605;49.432;8.680;2023-08-20T07:00:39;23.40;99.90
10417;DHT22;62605;49.432;8.680;2023-08-20T07:03:06;23.50;99.90
10417;DHT22;62605;49.432;8.680;2023-08-20T07:05:33;23.50;99.90
10417;DHT22;62605;49.432;8.680;2023-08-20T07:08:00;23.70;99.90
10417;DHT22;62605;49.432;8.680;2023-08-20T07:10:27;23.50;99.90
10417;DHT22;62605;49.432;8.680;2023-08-20T07:12:56;23.60;99.90
10417;DHT22;62605;49.432;8.680;2023-08-20T07:15:23;23.60;99.90
10417;DHT22;62605;49.432;8.680;2023-08-20T07:17:50;23.50;99.90
10417;DHT22;62605;49.432;8.680;2023-08-20T07:20:17;23.70;99.90
10417;DHT22;62605;49.432;8.680;2023-08-20T07:22:44;23.60;99.90
10417;DHT22;62605;49.432;8.680;2023-08-20T07:25:11;23.60;99.90
10417;DHT22;62605;49.432;8.680;2023-08-20T07:27:38;23.60;99.90
10417;DHT22;62605;49.432;8.680;2023-08-20T07:30:08;23.80;99.90
10417;DHT22;62605;49.432;8.680;2023-08-20T07:32:35;23.90;99.90
10417;DHT22;62605;49.432;8.680;2023-08-20T07:35:03;24.00;99.90
10417;DHT22;62605;49.432;8.680;2023-08-20T07:37:30;23.90;99.90
10417;DHT22;62605;49.432;8.680;2023-08-20T07:39:56;23.90;99.90
10417;DHT22;62605;49.432;8.680;2023-08-20T07:42:23;23.90;99.90
10417;DHT22;62605;49.432;8.680;2023-08-20T07:44:51;24.00;99.90
10417;DHT22;62605;49.432;8.680;2023-08-20T07:47:19;23.90;99.90
10417;DHT22;62605;49.432;8.680;2023-08-20T07:49:46;23.90;99.90
10417;DHT22;62605;49.432;8.680;2023-08-20T07:52:13;24.00;99.90
10417;DHT22;62605;49.432;8.680;2023-08-20T07:54:41;24.10;99.90
10417;DHT22;62605;49.432;8.680;2023-08-20T07:57:10;24.20;99.90
10417;DHT22;62605;49.432;8.680;2023-08-20T07:59:37;24.50;99.90
10417;DHT22;62605;49.432;8.680;2023-08-20T08:02:05;24.50;99.90
10417;DHT22;62605;49.432;8.680;2023-08-20T08:04:33;24.60;99.90
10417;DHT22;62605;49.432;8.680;2023-08-20T08:07:01;24.80;99.90
10417;DHT22;62605;49.432;8.680;2023-08-20T08:09:29;24.90;99.90
10417;DHT22;62605;49.432;8.680;2023-08-20T08:11:57;25.10;99.90
10417;DHT22;62605;49.432;8.680;2023-08-20T08:14:25;25.10;99.90
10417;DHT22;62605;49.432;8.680;2023-08-20T08:16:52;25.10;99.90
10417;DHT22;62605;49.432;8.680;2023-08-20T08:19:19;25.10;99.90
10417;DHT22;62605;49.432;8.680;2023-08-20T08:21:48;25.30;99.90
10417;DHT22;62605;49.432;8.680;2023-08-20T08:24:15;25.40;99.90
10417;DHT22;62605;49.432;8.680;2023-08-20T08:26:43;25.50;99.90
10417;DHT22;62605;49.432;8.680;2023-08-20T08:29:10;25.50;99.90
10417;DHT22;62605;49.432;8.680;2023-08-20T08:31:37;25.50;99.90
10417;DHT22;62605;49.432;8.680;2023-08-20T08:34:04;25.40;99.90
10417;DHT22;62605;49.432;8.680;2023-08-20T08:36:31;25.50;99.90
10417;DHT22;62605;49.432;8.680;2023-08-20T08:39:00;25.60;99.90
10417;DHT22;62605;49.432;8.680;2023-08-20T08:41:28;25.60;99.90
10417;DHT22;62605;49.432;8.680;2023-08-20T08:43:56;25.70;99.90
10417;DHT22;62605;49.432;8.680;2023-08-20T08:46:24;25.70;99.90
10417;DHT22;62605;49.432;8.680;2023-08-20T08:48:52;25.90;99.90
10417;DHT22;62605;49.432;8.680;2023-08-20T08:51:20;25.80;99.90
10417;DHT22;62605;49.432;8.680;2023-08-20T08:53:47;25.90;99.90
10417;DHT22;62605;49.432;8.680;2023-08-20T08:56:15;26.00;99.90
10417;DHT22;62605;49.432;8.680;2023-08-20T08:58:43;26.10;99.90
10417;DHT22;62605;49.432;8.680;2023-08-20T09:01:11;26.30;99.90
10417;DHT22;62605;49.432;8.680;2023-08-20T09:03:38;26.20;99.90
10417;DHT22;62605;49.432;8.680;2023-08-20T09:06:08;26.20;99.90
10417;DHT22;62605;49.432;8.680;2023-08-20T09:08:36;26.40;99.90
10417;DHT22;62605;49.432;8.680;2023-08-20T09:11:03;26.50;99.90
10417;DHT22;62605;49.432;8.680;2023-08-20T09:13:36;26.60;99.90
10417;DHT22;62605;49.432;8.680;2023-08-20T09:16:04;26.60;99.90
10417;DHT22;62605;49.432;8.680;2023-08-20T09:18:32;26.70;99.90
10417;DHT22;62605;49.432;8.680;2023-08-20T09:20:59;27.00;99.90
10417;DHT22;62605;49.432;8.680;2023-08-20T09:23:29;27.00;99.90
10417;DHT22;62605;49.432;8.680;2023-08-20T09:25:57;27.20;1.00
10417;DHT22;62605;49.432;8.680;2023-08-20T09:28:24;27.20;1.00
10417;DHT22;62605;49.432;8.680;2023-08-20T09:30:59;27.00;1.00
10417;DHT22;62605;49.432;8.680;2023-08-20T09:33:29;27.20;1.00
10417;DHT22;62605;49.432;8.680;2023-08-20T09:35:56;27.40;1.00
10417;DHT22;62605;49.432;8.680;2023-08-20T09:38:24;27.60;1.00
10417;DHT22;62605;49.432;8.680;2023-08-20T09:40:53;27.70;99.90
10417;DHT22;62605;49.432;8.680;2023-08-20T09:43:23;28.00;99.90
10417;DHT22;62605;49.432;8.680;2023-08-20T09:45:55;27.90;99.90
10417;DHT22;62605;49.432;8.680;2023-08-20T09:48:24;27.90;99.90
10417;DHT22;62605;49.432;8.680;2023-08-20T09:50:57;27.80;99.90
10417;DHT22;62605;49.432;8.680;2023-08-20T09:53:27;27.60;99.90
10417;DHT22;62605;49.432;8.680;2023-08-20T09:56:10;27.80;99.90
10417;DHT22;62605;49.432;8.680;2023-08-20T09:58:43;28.10;99.90
10417;DHT22;62605;49.432;8.680;2023-08-20T10:01:12;28.00;99.90
10417;DHT22;62605;49.432;8.680;2023-08-20T10:03:41;28.00;99.90
10417;DHT22;62605;49.432;8.680;2023-08-20T10:06:10;28.30;99.90
10417;DHT22;62605;49.432;8.680;2023-08-20T10:08:38;28.50;99.90
10417;DHT22;62605;49.432;8.680;2023-08-20T10:11:05;28.60;99.90
10417;DHT22;62605;49.432;8.680;2023-08-20T10:13:32;28.70;99.90
10417;DHT22;62605;49.432;8.680;2023-08-20T10:15:59;28.60;99.90
10417;DHT22;62605;49.432;8.680;2023-08-20T10:18:27;29.00;99.90
10417;DHT22;62605;49.432;8.680;2023-08-20T10:20:57;29.10;99.90
10417;DHT22;62605;49.432;8.680;2023-08-20T10:23:24;28.90;99.90
10417;DHT22;62605;49.432;8.680;2023-08-20T10:25:52;28.80;99.90
10417;DHT22;62605;49.432;8.680;2023-08-20T10:28:21;28.70;99.90
10417;DHT22;62605;49.432;8.680;2023-08-20T10:31:05;29.00;99.90
10417;DHT22;62605;49.432;8.680;2023-08-20T10:33:34;29.10;99.90
10417;DHT22;62605;49.432;8.680;2023-08-20T10:36:14;29.10;99.90
10417;DHT22;62605;49.432;8.680;2023-08-20T10:38:44;29.40;99.90
10417;DHT22;62605;49.432;8.680;2023-08-20T10:41:12;29.50;99.90
10417;DHT22;62605;49.432;8.680;2023-08-20T10:43:46;29.20;99.90
10417;DHT22;62605;49.432;8.680;2023-08-20T10:46:15;29.40;99.90
10417;DHT22;62605;49.432;8.680;2023-08-20T10:48:47;29.60;99.90
10417;DHT22;62605;49.432;8.680;2023-08-20T10:51:17;29.60;99.90
10417;DHT22;62605;49.432;8.680;2023-08-20T10:54:03;29.60;99.90
10417;DHT22;62605;49.432;8.680;2023-08-20T10:56:41;29.60;99.90
10417;DHT22;62605;49.432;8.680;2023-08-20T10:59:13;29.60;99.90
10417;DHT22;62605;49.432;8.680;2023-08-20T11:01:40;29.50;99.90
10417;DHT22;62605;49.432;8.680;2023-08-20T11:04:09;29.60;99.90
10417;DHT22;62605;49.432;8.680;2023-08-20T11:06:39;29.80;99.90
10417;DHT22;62605;49.432;8.680;2023-08-20T11:09:07;29.80;99.90
10417;DHT22;62605;49.432;8.680;2023-08-20T11:11:37;29.70;99.90
10417;DHT22;62605;49.432;8.680;2023-08-20T11:14:06;30.00;99.90
10417;DHT22;62605;49.432;8.680;2023-08-20T11:16:34;29.90;99.90
10417;DHT22;62605;49.432;8.680;2023-08-20T11:19:02;29.80;99.90
10417;DHT22;62605;49.432;8.680;2023-08-20T11:21:32;30.10;99.90
10417;DHT22;62605;49.432;8.680;2023-08-20T11:24:02;30.20;99.90
10417;DHT22;62605;49.432;8.680;2023-08-20T11:26:29;30.50;99.90
10417;DHT22;62605;49.432;8.680;2023-08-20T11:28:57;30.60;99.90
10417;DHT22;62605;49.432;8.680;2023-08-20T11:31:25;30.70;99.90
10417;DHT22;62605;49.432;8.680;2023-08-20T11:33:52;30.70;99.90
10417;DHT22;62605;49.432;8.680;2023-08-20T11:36:20;30.40;99.90
10417;DHT22;62605;49.432;8.680;2023-08-20T11:38:50;30.40;99.90
10417;DHT22;62605;49.432;8.680;2023-08-20T11:41:19;30.30;99.90
10417;DHT22;62605;49.432;8.680;2023-08-20T11:43:47;30.40;99.90
10417;DHT22;62605;49.432;8.680;2023-08-20T11:46:22;30.40;99.90
10417;DHT22;62605;49.432;8.680;2023-08-20T11:49:02;30.50;99.90
10417;DHT22;62605;49.432;8.680;2023-08-20T11:51:30;31.00;99.90
10417;DHT22;62605;49.432;8.680;2023-08-20T11:54:01;30.80;99.90
10417;DHT22;62605;49.432;8.680;2023-08-20T11:56:32;30.90;99.90
10417;DHT22;62605;49.432;8.680;2023-08-20T11:59:00;31.00;99.90
10417;DHT22;62605;49.432;8.680;2023-08-20T12:01:30;31.30;99.90
10417;DHT22;62605;49.432;8.680;2023-08-20T12:04:00;31.40;99.90
10417;DHT22;62605;49.432;8.680;2023-08-20T12:06:28;31.20;99.90
10417;DHT22;62605;49.432;8.680;2023-08-20T12:08:56;31.00;99.90
10417;DHT22;62605;49.432;8.680;2023-08-20T12:11:24;31.20;99.90
10417;DHT22;62605;49.432;8.680;2023-08-20T12:13:54;31.30;9.20
10417;DHT22;62605;49.432;8.680;2023-08-20T12:16:22;31.60;99.90
10417;DHT22;62605;49.432;8.680;2023-08-20T12:18:50;31.50;1.00
10417;DHT22;62605;49.432;8.680;2023-08-20T12:21:18;31.70;1.00
10417;DHT22;62605;49.432;8.680;2023-08-20T12:23:45;31.60;1.00
10417;DHT22;62605;49.432;8.680;2023-08-20T12:26:12;31.40;1.00
10417;DHT22;62605;49.432;8.680;2023-08-20T12:28:39;31.60;1.00
10417;DHT22;62605;49.432;8.680;2023-08-20T12:31:08;31.60;1.00
10417;DHT22;62605;49.432;8.680;2023-08-20T12:33:36;31.70;1.00
10417;DHT22;62605;49.432;8.680;2023-08-20T12:36:03;31.50;1.00
10417;DHT22;62605;49.432;8.680;2023-08-20T12:38:30;31.70;1.00
10417;DHT22;62605;49.432;8.680;2023-08-20T12:40:59;31.50;1.00
10417;DHT22;62605;49.432;8.680;2023-08-20T12:43:27;31.50;1.00
10417;DHT22;62605;49.432;8.680;2023-08-20T12:45:54;31.80;1.00
10417;DHT22;62605;49.432;8.680;2023-08-20T12:48:23;31.80;1.00
10417;DHT22;62605;49.432;8.680;2023-08-20T12:50:50;31.60;1.00
10417;DHT22;62605;49.432;8.680;2023-08-20T12:53:17;31.50;1.00
10417;DHT22;62605;49.432;8.680;2023-08-20T12:55:45;31.80;1.00
10417;DHT22;62605;49.432;8.680;2023-08-20T12:58:12;31.60;1.00
10417;DHT22;62605;49.432;8.680;2023-08-20T13:00:40;31.70;1.00
10417;DHT22;62605;49.432;8.680;2023-08-20T13:03:08;31.80;1.00
10417;DHT22;62605;49.432;8.680;2023-08-20T13:05:37;31.70;1.00
10417;DHT22;62605;49.432;8.680;2023-08-20T13:08:05;31.70;1.00
10417;DHT22;62605;49.432;8.680;2023-08-20T13:10:33;31.70;1.00
10417;DHT22;62605;49.432;8.680;2023-08-20T13:13:01;32.00;1.00
10417;DHT22;62605;49.432;8.680;2023-08-20T13:15:29;31.60;1.00
10417;DHT22;62605;49.432;8.680;2023-08-20T13:17:57;31.70;1.00
10417;DHT22;62605;49.432;8.680;2023-08-20T13:20:24;31.70;1.00
10417;DHT22;62605;49.432;8.680;2023-08-20T13:22:54;31.90;1.00
10417;DHT22;62605;49.432;8.680;2023-08-20T13:25:21;31.90;1.00
10417;DHT22;62605;49.432;8.680;2023-08-20T13:27:49;32.10;1.00
10417;DHT22;62605;49.432;8.680;2023-08-20T13:30:16;31.90;1.00
10417;DHT22;62605;49.432;8.680;2023-08-20T13:32:43;31.90;1.00
10417;DHT22;62605;49.432;8.680;2023-08-20T13:35:10;31.90;1.00
10417;DHT22;62605;49.432;8.680;2023-08-20T13:37:39;32.00;1.00
10417;DHT22;62605;49.432;8.680;2023-08-20T13:40:09;31.90;1.00
10417;DHT22;62605;49.432;8.680;2023-08-20T13:42:36;32.00;1.00
10417;DHT22;62605;49.432;8.680;2023-08-20T13:45:04;32.00;1.00
10417;DHT22;62605;49.432;8.680;2023-08-20T13:47:32;32.10;1.00
10417;DHT22;62605;49.432;8.680;2023-08-20T13:49:59;32.20;1.00
10417;DHT22;62605;49.432;8.680;2023-08-20T13:52:28;32.30;1.00
10417;DHT22;62605;49.432;8.680;2023-08-20T13:54:55;32.30;1.00
10417;DHT22;62605;49.432;8.680;2023-08-20T13:57:24;32.10;1.00
10417;DHT22;62605;49.432;8.680;2023-08-20T13:59:51;32.30;1.00
10417;DHT22;62605;49.432;8.680;2023-08-20T14:02:18;32.50;1.00
10417;DHT22;62605;49.432;8.680;2023-08-20T14:04:45;32.20;1.00
10417;DHT22;62605;49.432;8.680;2023-08-20T14:07:13;32.80;1.00
10417;DHT22;62605;49.432;8.680;2023-08-20T14:09:40;32.90;1.00
10417;DHT22;62605;49.432;8.680;2023-08-20T14:12:07;32.70;1.00
10417;DHT22;62605;49.432;8.680;2023-08-20T14:14:36;32.80;1.00
10417;DHT22;62605;49.432;8.680;2023-08-20T14:17:03;32.70;1.00
10417;DHT22;62605;49.432;8.680;2023-08-20T14:19:30;32.60;1.00
10417;DHT22;62605;49.432;8.680;2023-08-20T14:21:57;32.50;1.00
10417;DHT22;62605;49.432;8.680;2023-08-20T14:24:24;32.60;1.00
10417;DHT22;62605;49.432;8.680;2023-08-20T14:26:51;32.30;1.00
10417;DHT22;62605;49.432;8.680;2023-08-20T14:29:18;32.50;1.00
10417;DHT22;62605;49.432;8.680;2023-08-20T14:31:47;32.70;1.00
10417;DHT22;62605;49.432;8.680;2023-08-20T14:34:14;32.80;1.00
10417;DHT22;62605;49.432;8.680;2023-08-20T14:36:41;32.80;1.00
10417;DHT22;62605;49.432;8.680;2023-08-20T14:39:09;32.90;1.00
10417;DHT22;62605;49.432;8.680;2023-08-20T14:41:36;33.10;1.00
10417;DHT22;62605;49.432;8.680;2023-08-20T14:44:04;32.90;1.00
10417;DHT22;62605;49.432;8.680;2023-08-20T14:46:31;33.00;1.00
10417;DHT22;62605;49.432;8.680;2023-08-20T14:49:00;33.10;1.00
10417;DHT22;62605;49.432;8.680;2023-08-20T14:51:28;33.00;1.00
10417;DHT22;62605;49.432;8.680;2023-08-20T14:53:56;33.20;1.00
10417;DHT22;62605;49.432;8.680;2023-08-20T14:56:23;33.60;1.00
10417;DHT22;62605;49.432;8.680;2023-08-20T14:58:50;33.30;1.00
10417;DHT22;62605;49.432;8.680;2023-08-20T15:01:17;33.10;1.00
10417;DHT22;62605;49.432;8.680;2023-08-20T15:03:45;33.00;1.00
10417;DHT22;62605;49.432;8.680;2023-08-20T15:06:13;32.80;1.00
10417;DHT22;62605;49.432;8.680;2023-08-20T15:08:41;32.90;1.00
10417;DHT22;62605;49.432;8.680;2023-08-20T15:11:08;33.00;1.00
10417;DHT22;62605;49.432;8.680;2023-08-20T15:13:35;32.90;1.00
10417;DHT22;62605;49.432;8.680;2023-08-20T15:16:02;32.90;1.00
10417;DHT22;62605;49.432;8.680;2023-08-20T15:18:29;32.80;1.00
10417;DHT22;62605;49.432;8.680;2023-08-20T15:20:56;33.10;1.00
10417;DHT22;62605;49.432;8.680;2023-08-20T15:23:26;33.10;1.00
10417;DHT22;62605;49.432;8.680;2023-08-20T15:25:54;33.30;1.00
10417;DHT22;62605;49.432;8.680;2023-08-20T15:28:22;33.60;1.00
10417;DHT22;62605;49.432;8.680;2023-08-20T15:30:50;33.20;1.00
10417;DHT22;62605;49.432;8.680;2023-08-20T15:33:18;32.80;1.00
10417;DHT22;62605;49.432;8.680;2023-08-20T15:35:46;32.90;1.00
10417;DHT22;62605;49.432;8.680;2023-08-20T15:38:13;33.00;1.00
10417;DHT22;62605;49.432;8.680;2023-08-20T15:40:42;33.00;1.00
10417;DHT22;62605;49.432;8.680;2023-08-20T15:43:09;33.10;1.00